Terminal Aerodrome Forecast
Issued by NWS Melbourne, FL

Home | Current Version | Previous Version | Text Only | Print | Product List | Glossary On
Versions: 1 2 3 4 5 6 7 8 9 10 11 12 13 14 15 16 17 18 19 20 21 22 23 24
000
FTUS42 KMLB 012300
TAFMCO
TAF
KMCO 012338Z 0200/0224 13009KT P6SM SCT300
     FM020600 18007KT P6SM SCT020 BKN120 WS015/20032KT
     FM021200 20012G20KT P6SM VCTS SCT025CB BKN040
     FM021500 22017G24KT P6SM VCTS SCT015CB BKN030 OVC050
     FM021800 26015G22KT P6SM VCSH BKN030 OVC050=

USA.gov is the U.S. government's official web portal to all federal, state and local government web resources and services.